Time;durP1;ratioP1;P1;durP2;ratioP2;P2;SDS_P1;SDS_P2;PMS_P1;PMS_P2;Temp;Humidity;BMP_temperature;BMP_pressure;BME280_temperature;BME280_humidity;BME280_pressure;Samples;Min_cycle;Max_cycle;Signal;HPM_P1;HPM_P2
2022/06/09 00:01:57;;;;;;;12.88;4.80;;;15.00;99.90;;;;;;5091243;28;20020;-58
2022/06/09 00:04:38;;;;;;;12.85;5.10;;;14.80;99.90;;;;;;5082561;28;20455;-57
2022/06/09 00:07:21;;;;;;;15.07;5.03;;;14.90;99.90;;;;;;5086547;28;20051;-57
2022/06/09 00:09:55;;;;;;;13.50;4.60;;;15.10;99.90;;;;;;5086698;28;20027;-57
2022/06/09 00:12:22;;;;;;;15.70;4.95;;;15.10;99.90;;;;;;5079283;28;20024;-58
2022/06/09 00:14:48;;;;;;;11.95;5.00;;;14.90;99.90;;;;;;5080559;28;20020;-58
2022/06/09 00:17:14;;;;;;;10.75;4.47;;;14.90;99.90;;;;;;5091998;28;20156;-57
2022/06/09 00:19:39;;;;;;;14.13;4.53;;;15.00;99.90;;;;;;5087655;28;20036;-57
2022/06/09 00:22:05;;;;;;;12.30;4.20;;;14.90;99.90;;;;;;5084492;28;20027;-58
2022/06/09 00:24:30;;;;;;;8.52;4.50;;;14.90;99.90;;;;;;5083152;28;20035;-57
2022/06/09 00:26:56;;;;;;;15.98;4.50;;;15.00;99.90;;;;;;5081262;28;20035;-57
2022/06/09 00:29:22;;;;;;;10.10;4.15;;;14.90;99.90;;;;;;5086684;28;20024;-57
2022/06/09 00:31:47;;;;;;;12.15;4.15;;;14.80;99.90;;;;;;5085844;28;20030;-57
2022/06/09 00:34:13;;;;;;;12.93;4.38;;;;;;;;;;5084293;28;20058;-57
2022/06/09 00:36:39;;;;;;;15.13;4.25;;;14.60;99.90;;;;;;5086104;28;20020;-58
2022/06/09 00:39:05;;;;;;;9.93;4.35;;;14.70;99.90;;;;;;5077586;28;20031;-57
2022/06/09 00:41:37;;;;;;;12.50;4.00;;;14.80;99.90;;;;;;5089872;28;20016;-58
2022/06/09 00:44:16;;;;;;;15.83;3.83;;;;;;;;;;5082657;28;20039;-57
2022/06/09 00:46:42;;;;;;;13.32;4.07;;;14.80;99.90;;;;;;5086047;28;20761;-58
2022/06/09 00:49:18;;;;;;;11.68;3.70;;;14.80;99.90;;;;;;5082762;28;20421;-57
2022/06/09 00:51:48;;;;;;;12.23;4.18;;;14.70;99.90;;;;;;5089639;28;20058;-57
2022/06/09 00:54:26;;;;;;;11.90;3.47;;;15.00;99.90;;;;;;5082316;28;20036;-57
2022/06/09 00:56:58;;;;;;;13.25;3.83;;;14.80;99.90;;;;;;5077944;28;20047;-57
2022/06/09 00:59:26;;;;;;;12.60;3.65;;;14.90;99.90;;;;;;5083269;28;20537;-56
2022/06/09 01:01:53;;;;;;;8.30;3.60;;;14.70;99.90;;;;;;5084871;28;20028;-57
2022/06/09 01:04:21;;;;;;;13.98;3.60;;;14.60;99.90;;;;;;5086370;28;20048;-57
2022/06/09 01:06:53;;;;;;;14.98;3.72;;;14.80;99.90;;;;;;5086259;28;20040;-57
2022/06/09 01:09:24;;;;;;;9.35;3.05;;;14.90;99.90;;;;;;5082447;28;20497;-56
2022/06/09 01:11:52;;;;;;;14.25;3.42;;;14.80;99.90;;;;;;5079393;28;20051;-56
2022/06/09 01:14:20;;;;;;;12.68;3.55;;;14.70;99.90;;;;;;5083362;28;20105;-56
2022/06/09 01:17:04;;;;;;;12.93;3.35;;;14.80;99.90;;;;;;5082984;28;20027;-58
2022/06/09 01:19:56;;;;;;;11.05;3.53;;;14.70;99.90;;;;;;5081687;28;20082;-58
2022/06/09 01:22:35;;;;;;;7.95;2.90;;;14.80;99.90;;;;;;5081496;28;20039;-57
2022/06/09 01:25:28;;;;;;;12.65;3.42;;;;;;;;;;5074362;28;20471;-56
2022/06/09 01:28:16;;;;;;;16.65;3.03;;;14.60;99.90;;;;;;5079680;28;20027;-58
2022/06/09 01:30:47;;;;;;;13.40;3.45;;;;;;;;;;5078964;28;20012;-57
2022/06/09 01:33:27;;;;;;;11.98;3.20;;;14.50;99.90;;;;;;5078321;28;20456;-57
2022/06/09 01:36:10;;;;;;;11.63;3.15;;;;;;;;;;5084578;28;20016;-57
2022/06/09 01:38:52;;;;;;;12.90;3.63;;;;;;;;;;5080799;28;20494;-57
2022/06/09 01:41:20;;;;;;;9.90;2.95;;;14.50;99.90;;;;;;5083546;28;20234;-57
2022/06/09 01:43:47;;;;;;;13.25;3.22;;;14.70;99.90;;;;;;5085668;28;20024;-57
2022/06/09 01:46:48;;;;;;;8.43;3.15;;;14.30;99.90;;;;;;5085580;28;20430;-57
2022/06/09 01:49:19;;;;;;;15.25;3.00;;;14.40;99.90;;;;;;5054171;28;20051;-57
2022/06/09 01:51:48;;;;;;;12.30;3.60;;;;;;;;;;5075970;28;20626;-56
2022/06/09 01:54:21;;;;;;;10.65;3.33;;;14.10;99.90;;;;;;5081890;28;20046;-57
2022/06/09 01:56:56;;;;;;;13.45;3.70;;;14.50;99.90;;;;;;5082274;28;20091;-56
2022/06/09 01:59:27;;;;;;;14.65;3.72;;;14.60;99.90;;;;;;5082957;28;20165;-56
2022/06/09 02:02:03;;;;;;;18.08;4.22;;;14.50;99.90;;;;;;5084741;28;20031;-56
2022/06/09 02:04:37;;;;;;;14.40;3.78;;;14.40;99.90;;;;;;5082049;28;20138;-56
2022/06/09 02:07:05;;;;;;;16.67;3.53;;;;;;;;;;5081996;28;20024;-56
2022/06/09 02:09:33;;;;;;;18.63;4.00;;;14.10;99.90;;;;;;5079162;28;20024;-57
2022/06/09 02:12:06;;;;;;;22.67;4.22;;;;;;;;;;5079766;28;20034;-56
2022/06/09 02:14:32;;;;;;;15.15;3.67;;;14.10;99.90;;;;;;5083299;28;20559;-57
2022/06/09 02:16:59;;;;;;;13.68;3.88;;;;;;;;;;5083447;28;20546;-55
2022/06/09 02:19:26;;;;;;;13.60;3.95;;;;;;;;;;5081132;28;20023;-57
2022/06/09 02:21:53;;;;;;;15.15;4.55;;;;;;;;;;5076702;28;20093;-57
2022/06/09 02:24:19;;;;;;;18.20;4.05;;;;;;;;;;5085483;28;20046;-57
2022/06/09 02:26:46;;;;;;;17.98;4.95;;;;;;;;;;5082602;28;20024;-58
2022/06/09 02:29:14;;;;;;;15.27;3.97;;;;;;;;;;5077589;28;20580;-57
2022/06/09 02:31:41;;;;;;;14.93;4.05;;;;;;;;;;5081839;28;20434;-57
2022/06/09 02:34:09;;;;;;;14.40;4.15;;;;;;;;;;5079591;28;20042;-57
2022/06/09 02:36:35;;;;;;;19.45;4.32;;;;;;;;;;5082521;28;20027;-57
2022/06/09 02:39:03;;;;;;;18.88;4.68;;;;;;;;;;5083094;28;20035;-58
2022/06/09 02:41:30;;;;;;;20.88;4.53;;;;;;;;;;5083818;28;20684;-57
2022/06/09 02:43:55;;;;;;;15.57;4.57;;;14.60;99.90;;;;;;5080029;28;20493;-57
2022/06/09 02:46:21;;;;;;;15.98;4.35;;;14.50;99.90;;;;;;5079012;28;20048;-57
2022/06/09 02:48:46;;;;;;;21.48;4.85;;;14.60;99.90;;;;;;5080649;28;20284;-57
2022/06/09 02:51:28;;;;;;;18.23;4.65;;;14.50;99.90;;;;;;5073291;28;20082;-58
2022/06/09 02:53:55;;;;;;;17.00;4.60;;;14.60;99.90;;;;;;5084028;28;20549;-58
2022/06/09 02:56:21;;;;;;;18.80;4.25;;;14.70;99.90;;;;;;5084077;28;20035;-57
2022/06/09 02:58:47;;;;;;;23.08;5.00;;;14.70;99.90;;;;;;5081226;28;20130;-57
2022/06/09 03:01:13;;;;;;;17.98;5.00;;;14.70;99.90;;;;;;5078233;28;20632;-57
2022/06/09 03:03:39;;;;;;;17.67;5.13;;;14.70;99.90;;;;;;5086426;28;20027;-58
2022/06/09 03:06:04;;;;;;;22.83;6.22;;;14.60;99.90;;;;;;5081323;28;20028;-57
2022/06/09 03:08:30;;;;;;;24.60;6.88;;;14.50;99.90;;;;;;5082097;28;20028;-56
2022/06/09 03:10:56;;;;;;;24.63;6.53;;;14.60;99.90;;;;;;5084111;28;20456;-57
2022/06/09 03:13:22;;;;;;;19.73;6.10;;;14.70;99.90;;;;;;5078612;28;20073;-57
2022/06/09 03:15:50;;;;;;;30.35;6.70;;;14.70;99.90;;;;;;5074339;28;20043;-58
2022/06/09 03:18:16;;;;;;;20.42;7.47;;;14.70;99.90;;;;;;5084014;28;20085;-57
2022/06/09 03:20:41;;;;;;;22.63;7.55;;;14.90;99.90;;;;;;5074013;28;20051;-57
2022/06/09 03:23:07;;;;;;;28.00;8.68;;;14.80;99.90;;;;;;5084815;28;20113;-58
2022/06/09 03:25:33;;;;;;;24.50;9.95;;;14.80;99.90;;;;;;5078394;28;20028;-58
2022/06/09 03:27:59;;;;;;;25.10;9.57;;;15.00;99.90;;;;;;5074042;28;20032;-57
2022/06/09 03:30:24;;;;;;;30.52;10.32;;;14.90;99.90;;;;;;5085397;28;20532;-58
2022/06/09 03:32:50;;;;;;;30.70;10.65;;;14.80;99.90;;;;;;5080172;28;20051;-57
2022/06/09 03:35:16;;;;;;;34.67;11.18;;;14.70;99.90;;;;;;5083396;28;20101;-56
2022/06/09 03:37:42;;;;;;;33.95;11.02;;;14.60;99.90;;;;;;5087125;28;20511;-57
2022/06/09 03:40:12;;;;;;;30.85;10.40;;;14.60;99.90;;;;;;5086541;28;20111;-58
2022/06/09 03:42:38;;;;;;;29.73;10.55;;;14.70;99.90;;;;;;5085863;28;20016;-56
2022/06/09 03:45:04;;;;;;;30.50;10.75;;;14.80;99.90;;;;;;5085444;28;20521;-57
2022/06/09 03:47:29;;;;;;;33.83;11.00;;;14.80;99.90;;;;;;5085654;28;20024;-57
2022/06/09 03:49:55;;;;;;;32.30;11.40;;;14.90;99.90;;;;;;5084027;28;20099;-58
2022/06/09 03:52:21;;;;;;;32.35;11.52;;;14.90;99.90;;;;;;5082610;28;20032;-58
2022/06/09 03:54:46;;;;;;;29.48;12.25;;;14.90;99.90;;;;;;5084842;28;20031;-57
2022/06/09 03:57:12;;;;;;;31.02;11.38;;;14.90;99.90;;;;;;5083492;28;20615;-58
2022/06/09 03:59:38;;;;;;;31.95;11.68;;;14.90;99.90;;;;;;5081598;28;20531;-58
2022/06/09 04:02:03;;;;;;;37.60;12.13;;;14.80;99.90;;;;;;5090842;28;20023;-58
2022/06/09 04:04:29;;;;;;;28.05;11.00;;;14.90;99.90;;;;;;5086718;28;20362;-56
2022/06/09 04:06:54;;;;;;;27.42;10.75;;;14.80;99.90;;;;;;5086426;28;20095;-58
2022/06/09 04:09:20;;;;;;;31.65;11.60;;;15.00;99.90;;;;;;5085818;28;20111;-57
2022/06/09 04:11:46;;;;;;;28.80;11.88;;;14.80;99.90;;;;;;5086756;28;20033;-58
2022/06/09 04:14:12;;;;;;;33.63;12.10;;;14.80;99.90;;;;;;5084170;28;20043;-58
2022/06/09 04:16:44;;;;;;;32.30;10.93;;;14.80;99.90;;;;;;5087227;28;20123;-58
2022/06/09 04:19:13;;;;;;;26.60;10.73;;;14.80;99.90;;;;;;5085085;28;20078;-57
2022/06/09 04:21:40;;;;;;;34.00;11.23;;;14.90;99.90;;;;;;5086434;28;20028;-57
2022/06/09 04:24:06;;;;;;;32.17;10.55;;;15.00;99.90;;;;;;5087011;28;20115;-58
2022/06/09 04:26:37;;;;;;;30.20;11.48;;;15.10;99.90;;;;;;5082743;28;20123;-57
2022/06/09 04:29:05;;;;;;;24.67;10.27;;;15.10;99.90;;;;;;5081468;28;20510;-58
2022/06/09 04:31:32;;;;;;;26.52;11.57;;;15.00;99.90;;;;;;5079522;28;20033;-57
2022/06/09 04:33:57;;;;;;;29.73;11.05;;;15.00;99.90;;;;;;5084917;28;20519;-57
2022/06/09 04:36:23;;;;;;;30.77;11.68;;;15.10;99.90;;;;;;5081947;28;20107;-57
2022/06/09 04:38:48;;;;;;;32.15;12.48;;;15.10;99.90;;;;;;5081682;28;20079;-58
2022/06/09 04:41:16;;;;;;;29.75;12.05;;;15.00;99.90;;;;;;5087963;28;20038;-57
2022/06/09 04:43:44;;;;;;;27.30;13.02;;;15.10;99.90;;;;;;5082000;28;20034;-58
2022/06/09 04:46:12;;;;;;;40.20;12.68;;;15.10;99.90;;;;;;5083822;28;20024;-57
2022/06/09 04:48:39;;;;;;;30.27;12.85;;;15.20;99.90;;;;;;5071994;28;20058;-58
2022/06/09 04:51:10;;;;;;;34.20;12.93;;;15.00;99.90;;;;;;5083827;28;20578;-58
2022/06/09 04:53:38;;;;;;;33.55;13.07;;;15.20;99.90;;;;;;5078012;28;20475;-58
2022/06/09 04:56:04;;;;;;;35.80;13.32;;;15.20;99.90;;;;;;5087601;28;20368;-57
2022/06/09 04:58:30;;;;;;;33.05;13.75;;;15.20;99.90;;;;;;5084553;28;20111;-57
2022/06/09 05:00:56;;;;;;;34.08;14.40;;;15.20;99.90;;;;;;5081486;28;20111;-58
2022/06/09 05:03:21;;;;;;;40.33;14.13;;;15.30;99.90;;;;;;5080082;28;20028;-57
2022/06/09 05:05:48;;;;;;;37.08;14.82;;;15.30;99.90;;;;;;5081670;28;20020;-59
2022/06/09 05:08:15;;;;;;;35.08;15.15;;;15.40;99.90;;;;;;5082388;28;20433;-59
2022/06/09 05:10:43;;;;;;;37.65;15.20;;;15.40;99.90;;;;;;5084547;28;20029;-58
2022/06/09 05:13:09;;;;;;;38.92;16.05;;;15.40;99.90;;;;;;5083885;28;20028;-59
2022/06/09 05:15:50;;;;;;;33.67;15.98;;;15.30;99.90;;;;;;5085525;28;20016;-58
2022/06/09 05:18:18;;;;;;;39.65;15.48;;;15.30;99.90;;;;;;5081839;28;20024;-58
2022/06/09 05:20:43;;;;;;;35.05;14.80;;;15.20;99.90;;;;;;5082277;28;20016;-58
2022/06/09 05:23:09;;;;;;;34.72;14.32;;;15.30;99.90;;;;;;5083228;28;20016;-57
2022/06/09 05:25:34;;;;;;;39.15;13.90;;;15.40;99.90;;;;;;5079431;28;20024;-58
2022/06/09 05:28:00;;;;;;;34.13;14.13;;;15.20;99.90;;;;;;5085017;28;20024;-58
2022/06/09 05:30:26;;;;;;;33.25;14.63;;;15.30;99.90;;;;;;5081937;28;20040;-57
2022/06/09 05:32:53;;;;;;;33.95;13.32;;;15.30;99.90;;;;;;5088026;28;20024;-59
2022/06/09 05:35:19;;;;;;;30.33;13.40;;;15.50;99.90;;;;;;5082716;28;20533;-59
2022/06/09 05:46:00;;;;;;;32.05;14.70;;;15.60;99.90;;;;;;5080759;28;20074;-58
2022/06/09 05:48:26;;;;;;;35.35;14.27;;;15.70;99.90;;;;;;5084368;28;20069;-58
2022/06/09 05:50:52;;;;;;;37.10;14.07;;;15.60;99.90;;;;;;5085104;28;20025;-57
2022/06/09 05:53:18;;;;;;;36.55;14.07;;;15.60;99.90;;;;;;5085425;28;20464;-58
2022/06/09 05:55:44;;;;;;;39.15;15.35;;;15.50;99.90;;;;;;5087244;28;20420;-59
2022/06/09 05:58:10;;;;;;;34.10;14.27;;;15.50;99.90;;;;;;5077775;28;20024;-58
2022/06/09 06:00:41;;;;;;;35.70;15.20;;;15.50;99.90;;;;;;5086433;28;20024;-58
2022/06/09 06:03:08;;;;;;;36.92;14.93;;;15.40;99.90;;;;;;5086701;28;20034;-58
2022/06/09 06:08:17;;;;;;;33.03;15.30;;;15.50;99.90;;;;;;5083877;28;20038;-58
2022/06/09 06:10:43;;;;;;;31.10;16.65;;;15.50;99.90;;;;;;5081266;28;20048;-57
2022/06/09 06:13:09;;;;;;;52.20;30.23;;;15.60;99.90;;;;;;5087128;28;20460;-61
2022/06/09 06:15:34;;;;;;;30.33;17.55;;;15.60;99.90;;;;;;5084636;28;20110;-59
2022/06/09 06:18:03;;;;;;;35.60;16.50;;;15.70;99.90;;;;;;5079389;28;20024;-58
2022/06/09 06:20:33;;;;;;;38.17;17.25;;;15.70;99.90;;;;;;5081255;28;20020;-58
2022/06/09 06:22:59;;;;;;;39.65;17.52;;;15.90;99.90;;;;;;5085454;28;20028;-59
2022/06/09 06:25:25;;;;;;;41.80;17.52;;;16.00;99.90;;;;;;5079000;28;20032;-59
2022/06/09 06:27:50;;;;;;;34.47;16.92;;;16.20;99.90;;;;;;5076830;28;20048;-58
2022/06/09 06:30:16;;;;;;;42.97;18.40;;;16.30;99.90;;;;;;5086240;28;20111;-59
2022/06/09 06:32:41;;;;;;;42.60;18.27;;;16.20;99.90;;;;;;5080734;28;20024;-59
2022/06/09 06:35:08;;;;;;;42.08;17.92;;;16.10;99.90;;;;;;5085208;28;20811;-60
2022/06/09 06:37:34;;;;;;;38.28;18.08;;;16.10;99.90;;;;;;5077139;28;20028;-59
2022/06/09 06:39:59;;;;;;;37.30;18.88;;;16.10;99.90;;;;;;5080630;28;20024;-58
2022/06/09 06:42:25;;;;;;;37.85;19.70;;;16.20;99.90;;;;;;5087567;28;20031;-57
2022/06/09 06:44:51;;;;;;;40.08;17.92;;;16.00;99.90;;;;;;5082063;28;20741;-58
2022/06/09 06:47:16;;;;;;;34.75;16.85;;;16.20;99.90;;;;;;5084354;28;20034;-57
2022/06/09 06:49:42;;;;;;;34.90;17.80;;;16.10;99.90;;;;;;5080698;28;20039;-59
2022/06/09 06:52:08;;;;;;;39.90;17.73;;;16.30;99.90;;;;;;5085361;28;20095;-59
2022/06/09 06:54:33;;;;;;;29.80;16.60;;;16.50;99.90;;;;;;5084770;28;20660;-60
2022/06/09 06:56:59;;;;;;;37.03;18.40;;;16.50;99.90;;;;;;5086284;28;20020;-58
2022/06/09 06:59:25;;;;;;;29.25;16.83;;;16.50;99.90;;;;;;5080530;28;20772;-59
2022/06/09 07:01:50;;;;;;;32.80;17.67;;;16.20;99.90;;;;;;5077315;28;20027;-59
2022/06/09 07:04:16;;;;;;;32.88;18.10;;;16.20;99.90;;;;;;5081009;28;20027;-59
2022/06/09 07:06:42;;;;;;;29.42;17.98;;;16.10;99.90;;;;;;5086709;28;20035;-58
2022/06/09 07:09:07;;;;;;;31.67;18.35;;;16.20;99.90;;;;;;5084640;28;20028;-59
2022/06/09 07:11:33;;;;;;;29.90;17.75;;;16.20;99.90;;;;;;5078052;28;20035;-59
2022/06/09 07:13:59;;;;;;;35.40;20.15;;;16.00;99.90;;;;;;5083747;28;20593;-59
2022/06/09 07:16:24;;;;;;;42.28;20.15;;;16.00;99.90;;;;;;5085811;28;20039;-58
2022/06/09 07:18:50;;;;;;;39.42;22.35;;;16.20;99.90;;;;;;5091112;28;20426;-60
2022/06/09 07:21:17;;;;;;;37.33;21.25;;;16.60;99.90;;;;;;5088004;28;20032;-59
2022/06/09 07:23:42;;;;;;;39.25;21.50;;;16.60;99.90;;;;;;5092804;28;20039;-60
2022/06/09 07:26:08;;;;;;;29.25;20.60;;;16.60;99.90;;;;;;5081236;28;20052;-58
2022/06/09 07:28:36;;;;;;;29.10;19.48;;;;;;;;;;5078639;28;20139;-60
2022/06/09 07:31:06;;;;;;;29.15;17.52;;;16.80;99.90;;;;;;5091478;28;20028;-60
2022/06/09 07:33:35;;;;;;;34.10;18.25;;;16.80;99.90;;;;;;5082686;28;20412;-59
2022/06/09 07:36:01;;;;;;;29.88;17.25;;;17.00;99.90;;;;;;5085827;28;20024;-60
2022/06/09 07:38:28;;;;;;;27.85;17.15;;;17.10;99.90;;;;;;5089630;28;20025;-60
2022/06/09 07:40:54;;;;;;;25.17;15.80;;;17.20;99.90;;;;;;5083209;28;20031;-58
2022/06/09 07:43:20;;;;;;;28.45;14.70;;;17.20;99.90;;;;;;5083418;28;20035;-59
2022/06/09 07:45:47;;;;;;;29.80;16.00;;;17.30;99.90;;;;;;5085035;28;20016;-59
2022/06/09 07:48:13;;;;;;;27.63;14.82;;;17.60;99.90;;;;;;5086505;28;20024;-59
2022/06/09 07:50:40;;;;;;;27.17;15.25;;;17.60;99.90;;;;;;5086021;28;20028;-59
2022/06/09 07:53:06;;;;;;;26.55;13.65;;;17.70;99.90;;;;;;5087929;28;20135;-59
2022/06/09 07:55:32;;;;;;;25.63;12.52;;;17.70;99.90;;;;;;5084363;28;20512;-59
2022/06/09 07:57:58;;;;;;;25.60;12.88;;;17.70;99.90;;;;;;5090237;28;20577;-59
2022/06/09 08:00:25;;;;;;;31.10;13.77;;;17.70;99.90;;;;;;5082770;28;20082;-59
2022/06/09 08:02:51;;;;;;;28.73;13.18;;;17.60;99.90;;;;;;5091236;28;20028;-59
2022/06/09 08:05:19;;;;;;;27.92;13.02;;;17.60;99.90;;;;;;5084112;28;20075;-58
2022/06/09 08:07:44;;;;;;;22.00;11.18;;;17.60;99.90;;;;;;5086497;28;20392;-58
2022/06/09 08:10:19;;;;;;;23.17;12.48;;;17.40;99.90;;;;;;5085457;28;20115;-59
2022/06/09 08:12:45;;;;;;;20.50;11.80;;;17.50;99.90;;;;;;5089656;28;20388;-59
2022/06/09 08:15:11;;;;;;;24.58;11.82;;;17.40;99.90;;;;;;5081800;28;20035;-59
2022/06/09 08:17:38;;;;;;;23.58;12.13;;;17.40;99.90;;;;;;5076467;28;20029;-58
2022/06/09 08:20:05;;;;;;;22.70;12.25;;;17.50;99.90;;;;;;5082928;28;20026;-58
2022/06/09 08:22:31;;;;;;;18.80;10.90;;;17.60;99.90;;;;;;5086964;28;20077;-60
2022/06/09 08:24:57;;;;;;;25.48;11.52;;;17.70;99.90;;;;;;5082534;28;20685;-59
2022/06/09 08:27:22;;;;;;;21.55;10.25;;;17.70;99.90;;;;;;5078941;28;20110;-58
2022/06/09 08:29:48;;;;;;;19.58;8.52;;;17.60;99.90;;;;;;5079674;28;20032;-59
2022/06/09 08:32:13;;;;;;;22.83;11.63;;;17.50;99.90;;;;;;5088040;28;20045;-58
2022/06/09 08:34:39;;;;;;;24.92;11.52;;;17.50;99.90;;;;;;5080784;28;20024;-60
2022/06/09 08:37:05;;;;;;;34.35;19.77;;;17.70;99.90;;;;;;5079161;28;20478;-59
2022/06/09 08:39:31;;;;;;;20.42;11.30;;;17.70;99.90;;;;;;5085129;28;20034;-59
2022/06/09 08:42:06;;;;;;;18.88;11.85;;;17.70;99.90;;;;;;5085554;28;20539;-59
2022/06/09 08:44:47;;;;;;;27.92;12.98;;;17.80;99.90;;;;;;5086707;28;20089;-58
2022/06/09 08:47:22;;;;;;;20.80;11.95;;;18.00;99.90;;;;;;5086961;28;20027;-58
2022/06/09 08:49:53;;;;;;;21.33;12.57;;;17.90;99.90;;;;;;5078515;28;20056;-60
2022/06/09 08:52:34;;;;;;;21.55;12.70;;;17.80;99.90;;;;;;5085698;28;20394;-58
2022/06/09 08:55:02;;;;;;;26.15;12.80;;;17.80;99.90;;;;;;5086819;28;20076;-60
2022/06/09 08:57:33;;;;;;;21.40;12.07;;;17.80;99.90;;;;;;5086258;28;20020;-59
2022/06/09 08:59:59;;;;;;;24.15;13.20;;;17.70;99.90;;;;;;5083016;28;20360;-58
2022/06/09 09:02:43;;;;;;;23.05;13.00;;;17.60;99.90;;;;;;5084934;28;20500;-58
2022/06/09 09:05:23;;;;;;;25.92;14.50;;;17.40;99.90;;;;;;5082012;28;20510;-60
2022/06/09 09:07:51;;;;;;;28.33;15.13;;;17.10;99.90;;;;;;5081549;28;20090;-60
2022/06/09 09:10:44;;;;;;;21.38;13.93;;;17.10;99.90;;;;;;5081045;28;20053;-60
2022/06/09 09:13:24;;;;;;;27.38;12.98;;;17.00;99.90;;;;;;5077731;28;20169;-59
2022/06/09 09:15:54;;;;;;;22.13;13.68;;;16.80;99.90;;;;;;5079692;28;20024;-58
2022/06/09 09:18:37;;;;;;;24.48;15.25;;;16.80;99.90;;;;;;5087529;28;20482;-57
2022/06/09 09:21:12;;;;;;;24.80;15.88;;;16.80;99.90;;;;;;5085852;28;20103;-59
2022/06/09 09:24:15;;;;;;;23.48;14.63;;;16.80;99.90;;;;;;5076262;28;20081;-59
2022/06/09 09:26:40;;;;;;;22.70;14.88;;;16.70;99.90;;;;;;5080673;28;20043;-58
2022/06/09 09:29:25;;;;;;;24.33;15.10;;;16.80;99.90;;;;;;5084480;28;20040;-58
2022/06/09 09:32:01;;;;;;;24.50;14.48;;;16.90;99.90;;;;;;5081126;28;20020;-57
2022/06/09 09:34:35;;;;;;;24.73;13.20;;;16.60;99.90;;;;;;5081859;28;20506;-58
2022/06/09 09:37:14;;;;;;;24.20;13.48;;;16.80;99.90;;;;;;5080304;28;20112;-58
2022/06/09 09:39:46;;;;;;;19.90;13.30;;;16.60;99.90;;;;;;5085228;28;20031;-59
2022/06/09 09:42:16;;;;;;;19.08;12.93;;;16.80;99.90;;;;;;5088352;28;20231;-58
2022/06/09 09:45:13;;;;;;;21.20;14.10;;;17.00;99.90;;;;;;5085849;28;20054;-58
2022/06/09 09:47:48;;;;;;;19.63;12.82;;;17.10;99.90;;;;;;5088186;28;20028;-58
2022/06/09 09:50:59;;;;;;;19.63;13.18;;;17.10;99.90;;;;;;5078677;28;20973;-58
2022/06/09 09:53:53;;;;;;;16.30;13.02;;;17.20;99.90;;;;;;5080715;28;20040;-59
2022/06/09 09:56:19;;;;;;;23.23;14.18;;;17.40;99.90;;;;;;5084864;28;20379;-60
2022/06/09 09:58:47;;;;;;;20.02;13.90;;;17.40;99.90;;;;;;5083847;28;20099;-58
2022/06/09 10:01:22;;;;;;;22.65;14.60;;;17.50;99.90;;;;;;5082508;28;20505;-58
2022/06/09 10:09:45;;;;;;;20.70;15.45;;;;;;;;;;5080136;28;20562;-57
2022/06/09 10:12:18;;;;;;;22.38;16.65;;;17.40;99.90;;;;;;5083685;28;20052;-58
2022/06/09 10:14:45;;;;;;;24.40;17.40;;;;;;;;;;5077745;28;20036;-59
2022/06/09 10:17:30;;;;;;;31.30;18.40;;;17.90;99.90;;;;;;5083040;28;20024;-59
2022/06/09 10:20:04;;;;;;;27.80;18.70;;;;;;;;;;5077536;28;20060;-58
2022/06/09 10:22:34;;;;;;;27.58;17.92;;;;;;;;;;5087338;28;20414;-57
2022/06/09 10:25:02;;;;;;;24.52;17.52;;;;;;;;;;5082071;28;20394;-59
2022/06/09 10:27:33;;;;;;;25.15;17.35;;;;;;;;;;5076686;28;20111;-59
2022/06/09 10:30:15;;;;;;;26.48;16.42;;;18.70;99.90;;;;;;5082599;28;20179;-59
2022/06/09 10:33:01;;;;;;;23.92;16.65;;;18.70;99.90;;;;;;5076658;28;20055;-60
2022/06/09 10:35:59;;;;;;;22.95;15.75;;;18.60;99.90;;;;;;5077584;28;20035;-59
2022/06/09 10:38:39;;;;;;;27.70;16.08;;;18.40;99.90;;;;;;5073103;28;20044;-60
2022/06/09 10:41:10;;;;;;;25.70;16.45;;;;;;;;;;5083427;28;20122;-59
2022/06/09 10:43:57;;;;;;;20.13;15.68;;;18.70;99.90;;;;;;5083826;28;20035;-58
2022/06/09 10:46:39;;;;;;;25.30;15.77;;;18.70;99.90;;;;;;5079439;28;20060;-59
2022/06/09 10:55:24;;;;;;;22.55;16.60;;;18.60;99.90;;;;;;5080975;28;20059;-60
2022/06/09 10:58:23;;;;;;;23.95;15.85;;;18.60;99.90;;;;;;5082084;28;20023;-58
2022/06/09 11:00:50;;;;;;;22.92;15.57;;;18.60;99.90;;;;;;5076100;28;20536;-60
2022/06/09 11:03:44;;;;;;;20.70;16.00;;;18.80;99.90;;;;;;5081122;28;20048;-59
2022/06/09 11:06:28;;;;;;;21.50;14.57;;;18.80;99.90;;;;;;5074874;28;20035;-58
2022/06/09 11:09:21;;;;;;;18.25;14.55;;;18.60;99.90;;;;;;5077855;28;20695;-59
2022/06/09 11:12:25;;;;;;;19.33;14.40;;;18.60;99.90;;;;;;5084037;28;20032;-59
2022/06/09 11:14:56;;;;;;;19.98;13.88;;;18.60;99.90;;;;;;5081649;28;20020;-59
2022/06/09 11:17:51;;;;;;;17.95;10.18;;;18.60;99.90;;;;;;5078223;28;20025;-59
2022/06/09 11:20:42;;;;;;;13.43;10.73;;;18.50;99.90;;;;;;5057331;28;20039;-59
2022/06/09 11:23:08;;;;;;;18.77;10.32;;;18.50;99.90;;;;;;5084121;28;20048;-59
2022/06/09 11:26:25;;;;;;;14.05;8.88;;;18.70;99.90;;;;;;5086161;28;20327;-60
2022/06/09 11:29:05;;;;;;;14.88;7.93;;;;;;;;;;5072395;28;20051;-59
2022/06/09 11:31:40;;;;;;;8.35;4.32;;;18.90;99.90;;;;;;5073683;28;20543;-60
2022/06/09 11:34:13;;;;;;;6.75;3.15;;;18.80;99.90;;;;;;5080816;28;20543;-60
2022/06/09 11:37:06;;;;;;;4.50;2.30;;;18.70;99.90;;;;;;5081975;28;20024;-59
2022/06/09 11:39:42;;;;;;;5.00;2.10;;;18.70;99.90;;;;;;5084711;28;20036;-60
2022/06/09 11:42:33;;;;;;;2.85;1.60;;;18.70;99.90;;;;;;5088038;28;20259;-60
2022/06/09 11:45:11;;;;;;;5.80;1.80;;;18.90;99.90;;;;;;5078622;28;20388;-60
2022/06/09 11:47:36;;;;;;;4.45;2.40;;;18.90;99.90;;;;;;5077694;28;20032;-59
2022/06/09 11:50:08;;;;;;;4.90;2.13;;;19.00;99.90;;;;;;5079441;28;20376;-59
2022/06/09 11:52:49;;;;;;;4.63;2.10;;;19.00;99.90;;;;;;5086850;28;20041;-60
2022/06/09 11:58:36;;;;;;;4.82;2.50;;;;;;;;;;5080020;28;20107;-60
2022/06/09 12:01:02;;;;;;;;;;;;;;;;;;5082683;28;20028;-60
2022/06/09 12:03:40;;;;;;;5.30;2.38;;;;;;;;;;5080109;28;20036;-60
2022/06/09 12:06:06;;;;;;;4.43;2.42;;;;;;;;;;5081548;28;20028;-60
2022/06/09 12:08:35;;;;;;;4.60;2.50;;;;;;;;;;5086226;28;20036;-61
2022/06/09 12:11:10;;;;;;;7.18;2.50;;;;;;;;;;5084557;28;20499;-60
2022/06/09 12:14:10;;;;;;;6.78;2.88;;;20.00;99.90;;;;;;5086966;28;20019;-61
2022/06/09 12:17:12;;;;;;;6.93;2.45;;;20.30;99.90;;;;;;5090036;28;20583;-58
2022/06/09 12:19:52;;;;;;;5.78;1.98;;;20.30;99.90;;;;;;5084935;28;20020;-60
2022/06/09 12:22:41;;;;;;;2.92;2.00;;;20.20;99.90;;;;;;5087070;28;20021;-60
2022/06/09 12:25:14;;;;;;;4.05;1.77;;;19.90;99.90;;;;;;5090689;28;20535;-60
2022/06/09 12:27:42;;;;;;;;;;;19.50;99.90;;;;;;5090040;27;20077;-59
2022/06/09 12:30:28;;;;;;;2.90;1.60;;;19.60;99.90;;;;;;5086852;28;19954;-59
2022/06/09 12:33:19;;;;;;;3.60;1.48;;;20.00;99.90;;;;;;5082498;28;20040;-60
2022/06/09 12:35:54;;;;;;;3.67;1.52;;;20.30;99.90;;;;;;5078929;28;20043;-59
2022/06/09 12:38:37;;;;;;;4.57;1.50;;;20.60;99.90;;;;;;5087968;28;20508;-59
2022/06/09 12:41:27;;;;;;;4.38;1.70;;;20.70;99.90;;;;;;5088002;28;20468;-58
2022/06/09 12:44:39;;;;;;;4.07;1.60;;;20.50;99.90;;;;;;5091256;28;20031;-60
2022/06/09 12:47:17;;;;;;;6.38;3.40;;;20.60;99.90;;;;;;5077628;28;20076;-59
2022/06/09 12:49:46;;;;;;;6.07;2.80;;;20.00;99.90;;;;;;5082631;28;20039;-60
2022/06/09 12:52:23;;;;;;;5.47;2.65;;;19.70;99.90;;;;;;5082522;28;20019;-61
2022/06/09 12:55:02;;;;;;;3.88;2.15;;;19.60;99.90;;;;;;5085174;28;20020;-59
2022/06/09 12:57:34;;;;;;;7.55;2.20;;;19.60;99.90;;;;;;5090382;28;20379;-59
2022/06/09 13:00:25;;;;;;;2.92;1.77;;;19.80;99.90;;;;;;5082224;28;20651;-59
2022/06/09 13:02:55;;;;;;;3.08;1.67;;;19.90;99.90;;;;;;5086409;28;20020;-59
2022/06/09 13:05:46;;;;;;;5.00;2.10;;;20.00;99.90;;;;;;5083090;28;20036;-60
2022/06/09 13:08:16;;;;;;;1.90;1.30;;;20.20;99.90;;;;;;5080723;28;20036;-59
2022/06/09 13:10:46;;;;;;;2.50;1.35;;;20.10;99.90;;;;;;5083036;28;20032;-59
2022/06/09 13:13:34;;;;;;;3.97;1.33;;;20.10;99.90;;;;;;5087763;28;20590;-59
2022/06/09 13:16:04;;;;;;;4.10;1.77;;;20.30;99.90;;;;;;5081623;28;20039;-59
2022/06/09 13:18:35;;;;;;;4.18;1.90;;;20.40;99.90;;;;;;5082981;28;20028;-60
2022/06/09 13:21:14;;;;;;;7.13;2.25;;;20.20;99.90;;;;;;5082039;28;20107;-59
2022/06/09 13:23:41;;;;;;;5.00;2.50;;;20.20;99.90;;;;;;5083919;28;20031;-59
2022/06/09 13:26:11;;;;;;;4.63;2.50;;;20.10;99.90;;;;;;5086763;28;20020;-59
2022/06/09 13:28:48;;;;;;;6.13;3.00;;;20.30;99.90;;;;;;5077435;28;20039;-59
2022/06/09 13:31:36;;;;;;;6.13;3.67;;;20.20;99.90;;;;;;5085825;28;20024;-59
2022/06/09 13:34:07;;;;;;;9.48;4.10;;;20.00;99.90;;;;;;5085291;28;20614;-60
2022/06/09 13:36:40;;;;;;;12.38;5.47;;;19.90;99.90;;;;;;5083965;28;20024;-59